Time;durP1;ratioP1;P1;durP2;ratioP2;P2;SDS_P1;SDS_P2;PMS_P1;PMS_P2;Temp;Humidity;BMP_temperature;BMP_pressure;BME280_temperature;BME280_humidity;BME280_pressure;Samples;Min_cycle;Max_cycle;Signal;HPM_P1;HPM_P2
2022/02/03 00:00:23;;;;;;;;;6.00;2.67;;;;;12.12;58.01;102114.09;5093152;27;47616;-76
2022/02/03 00:03:02;;;;;;;;;4.67;2.33;;;;;12.09;58.21;102103.41;5097109;27;46931;-76
2022/02/03 00:05:47;;;;;;;;;3.33;2.67;;;;;12.08;57.75;102113.13;5084791;27;45370;-76
2022/02/03 00:24:14;;;;;;;;;3.00;2.00;;;;;11.86;58.10;102079.91;5076930;27;45680;-76
2022/02/03 00:27:03;;;;;;;;;3.67;3.00;;;;;11.83;58.19;102071.91;5061138;27;46127;-76
2022/02/03 00:29:48;;;;;;;;;3.33;2.00;;;;;11.94;58.24;102094.25;5097165;27;45471;-76
2022/02/03 00:48:43;;;;;;;;;5.00;3.33;;;;;12.08;58.39;102068.09;5096078;27;45291;-76
2022/02/03 00:51:08;;;;;;;;;6.67;4.00;;;;;12.07;58.04;102068.97;5073907;27;45559;-76
2022/02/03 00:53:34;;;;;;;;;5.67;3.33;;;;;12.07;58.27;102066.31;5095242;27;45476;-76
2022/02/03 00:56:03;;;;;;;;;5.00;2.67;;;;;12.06;58.33;102068.06;5079894;27;47156;-76
2022/02/03 00:58:28;;;;;;;;;8.00;3.00;;;;;12.04;58.47;102058.31;5093203;27;45510;-77
2022/02/03 01:00:59;;;;;;;;;5.33;4.00;;;;;12.05;58.03;102052.16;5092726;27;45696;-76
2022/02/03 01:03:29;;;;;;;;;3.00;3.00;;;;;11.99;58.45;102052.03;5086795;27;45251;-77
2022/02/03 01:05:57;;;;;;;;;4.33;3.00;;;;;12.09;58.41;102071.66;5079106;27;45596;-76
2022/02/03 01:08:23;;;;;;;;;3.33;2.33;;;;;12.00;58.10;102048.50;5079886;27;45607;-76
2022/02/03 01:11:02;;;;;;;;;4.00;3.00;;;;;12.01;58.43;102050.28;5070599;28;45537;-76
2022/02/03 01:16:40;;;;;;;;;3.67;3.67;;;;;11.99;58.14;102060.84;5078851;27;45808;-77
2022/02/03 01:19:31;;;;;;;;;3.00;3.00;;;;;11.92;57.85;102039.47;5089491;27;45323;-76
2022/02/03 01:43:53;;;;;;;;;4.67;3.00;;;;;11.96;58.36;102044.88;5084401;27;45396;-77
2022/02/03 01:46:27;;;;;;;;;8.00;5.33;;;;;11.96;57.63;102046.63;5092649;27;45627;-76
2022/02/03 01:49:09;;;;;;;;;4.00;4.00;;;;;11.97;58.41;102048.41;5078060;27;46555;-76
2022/02/03 01:51:44;;;;;;;;;7.33;6.67;;;;;11.96;57.97;102052.81;5063707;28;45261;-76
2022/02/03 01:54:09;;;;;;;;;5.33;4.00;;;;;11.89;58.22;102035.00;5068996;27;45527;-76
2022/02/03 01:56:36;;;;;;;;;7.67;4.00;;;;;11.97;58.37;102054.59;5084628;27;45517;-77
2022/02/03 01:59:02;;;;;;;;;6.67;5.00;;;;;11.95;58.19;102040.44;5095965;27;46761;-76
2022/02/03 02:01:31;;;;;;;;;4.33;4.33;;;;;11.96;58.19;102052.81;5084921;27;46246;-75
2022/02/03 02:04:31;;;;;;;;;4.00;4.00;;;;;11.92;58.33;102048.31;5095078;27;45539;-77
2022/02/03 02:07:02;;;;;;;;;4.00;4.00;;;;;11.89;58.16;102050.88;5110837;27;45563;-76
2022/02/03 02:12:50;;;;;;;;;4.00;3.00;;;;;11.92;57.99;102036.81;5098708;27;45310;-77
2022/02/03 02:42:46;;;;;;;;;5.67;3.00;;;;;11.98;58.11;101965.50;5112046;27;45674;-76
2022/02/03 02:45:13;;;;;;;;;4.33;3.67;;;;;11.89;58.23;101928.25;5079129;27;45312;-76
2022/02/03 02:48:13;;;;;;;;;6.67;4.00;;;;;12.00;58.16;101942.63;5078849;27;45259;-76
2022/02/03 02:50:53;;;;;;;;;4.00;4.00;;;;;11.92;58.05;101909.78;5078632;27;45388;-76
2022/02/03 02:56:50;;;;;;;;;4.67;2.33;;;;;11.94;58.26;101901.03;5074668;27;45427;-76
2022/02/03 03:00:07;;;;;;;;;4.00;2.67;;;;;11.90;58.17;101892.97;5072700;27;45745;-76
2022/02/03 03:30:10;;;;;;;;;5.00;3.00;;;;;11.94;58.13;101834.88;5072966;27;45288;-76
2022/02/03 03:35:43;;;;;;;;;4.00;4.00;;;;;11.84;57.44;101826.69;5090550;27;45404;-75
2022/02/03 03:38:10;;;;;;;;;2.00;2.00;;;;;11.86;57.59;101835.53;5110245;27;47580;-76
2022/02/03 03:40:38;;;;;;;;;5.33;4.33;;;;;11.78;57.81;101816.84;5088365;27;46076;-76
2022/02/03 03:43:04;;;;;;;;;3.33;3.33;;;;;11.85;57.53;101828.47;5095581;27;45370;-76
2022/02/03 03:45:30;;;;;;;;;3.00;2.00;;;;;11.82;57.69;101829.28;5090797;27;45535;-76
2022/02/03 03:47:59;;;;;;;;;6.67;5.00;;;;;11.77;57.91;101815.03;5077399;27;46434;-76
2022/02/03 03:50:25;;;;;;;;;4.33;3.00;;;;;11.72;57.58;101803.47;5096560;27;45584;-76
2022/02/03 03:52:57;;;;;;;;;4.00;3.67;;;;;11.73;57.34;101799.97;5096414;27;45306;-76
2022/02/03 03:59:00;;;;;;;;;3.00;3.00;;;;;11.71;57.12;101791.09;5075239;27;47306;-76
2022/02/03 04:41:54;;;;;;;;;4.67;3.00;;;;;11.58;57.64;101775.81;5082795;27;45232;-76
2022/02/03 04:54:24;;;;;;;;;4.33;3.00;;;;;11.51;57.89;101757.19;5087027;27;45460;-75
2022/02/03 05:00:07;;;;;;;;;5.00;4.00;;;;;11.55;58.09;101751.06;5078652;27;45646;-75
2022/02/03 05:02:47;;;;;;;;;4.33;3.00;;;;;11.57;57.95;101731.72;5076224;27;45583;-76
2022/02/03 05:12:05;;;;;;;;;5.00;4.00;;;;;11.64;58.15;101736.28;5090602;27;45295;-76
2022/02/03 05:23:34;;;;;;;;;6.33;4.00;;;;;11.69;58.06;101724.91;5111777;27;45627;-76
2022/02/03 05:32:17;;;;;;;;;6.33;4.33;;;;;11.63;58.15;101718.63;5079958;27;45774;-76
2022/02/03 05:43:58;;;;;;;;;8.33;4.33;;;;;11.44;57.78;101717.31;5097622;27;45755;-76
2022/02/03 05:54:46;;;;;;;;;4.00;4.00;;;;;11.34;58.07;101717.97;5082710;27;45583;-76
2022/02/03 06:05:44;;;;;;;;;7.00;4.33;;;;;11.27;58.15;101716.97;5084766;27;46227;-76
2022/02/03 06:14:08;;;;;;;;;7.00;5.00;;;;;11.25;58.34;101689.59;5087572;27;45318;-76
2022/02/03 06:16:58;;;;;;;;;5.33;4.00;;;;;11.27;57.97;101691.41;5097705;27;45928;-77
2022/02/03 06:22:55;;;;;;;;;5.33;4.33;;;;;11.26;58.02;101676.41;5083726;27;45236;-76
2022/02/03 06:27:37;;;;;;;;;6.67;6.67;;;;;11.18;58.18;101653.31;5090469;27;45721;-75
2022/02/03 06:30:03;;;;;;;;;8.67;7.67;;;;;11.18;58.34;101653.31;5095541;27;45415;-75
2022/02/03 06:32:29;;;;;;;;;6.33;4.33;;;;;11.14;58.08;101647.06;5084998;27;45512;-76
2022/02/03 06:34:54;;;;;;;;;7.67;5.00;;;;;11.17;58.20;101646.22;5087907;27;52753;-75
2022/02/03 06:37:19;;;;;;;;;9.00;8.00;;;;;11.10;58.29;101631.13;5090010;27;58830;-74
2022/02/03 06:39:45;;;;;;;;;7.00;6.33;;;;;11.20;58.58;101647.19;5093452;27;45537;-75
2022/02/03 06:42:10;;;;;;;;;8.00;8.00;;;;;11.20;58.54;101638.38;5093949;27;52781;-74
2022/02/03 06:44:44;;;;;;;;;8.67;5.00;;;;;11.24;58.23;101637.59;5092725;27;46887;-75
2022/02/03 06:47:19;;;;;;;;;6.33;6.33;;;;;11.18;58.05;101618.94;5111624;27;47760;-75
2022/02/03 06:52:32;;;;;;;;;10.00;9.00;;;;;11.27;58.13;101645.56;5078409;27;45278;-74
2022/02/03 06:55:10;;;;;;;;;9.00;7.67;;;;;11.22;58.12;101641.94;5079005;27;45295;-74
2022/02/03 06:57:46;;;;;;;;;7.33;7.33;;;;;11.24;58.18;101649.06;5081768;27;45807;-75
2022/02/03 07:00:34;;;;;;;;;7.00;7.00;;;;;11.12;58.19;101630.28;5079220;27;45299;-74
2022/02/03 07:03:01;;;;;;;;;9.67;8.33;;;;;11.04;58.32;101633.63;5096348;27;45527;-75
2022/02/03 07:05:26;;;;;;;;;8.00;8.00;;;;;11.15;58.18;101648.84;5084579;27;45564;-75
2022/02/03 07:07:52;;;;;;;;;9.00;9.00;;;;;11.14;58.37;101659.41;5084361;27;46407;-75
2022/02/03 07:10:17;;;;;;;;;12.00;9.33;;;;;11.10;58.00;101649.63;5082657;27;45378;-75
2022/02/03 07:12:42;;;;;;;;;11.00;9.00;;;;;11.08;58.07;101635.44;5083760;27;49003;-75
2022/02/03 07:15:09;;;;;;;;;9.33;9.00;;;;;11.06;58.31;101650.41;5085773;27;45529;-77
2022/02/03 07:17:35;;;;;;;;;9.00;9.00;;;;;10.96;58.17;101658.09;5079475;27;46386;-77
2022/02/03 07:20:04;;;;;;;;;9.00;9.00;;;;;10.82;58.09;101638.44;5082117;27;45528;-76
2022/02/03 07:22:29;;;;;;;;;10.75;8.25;;;;;10.82;58.86;101653.41;5091666;27;45460;-76
2022/02/03 07:24:55;;;;;;;;;9.67;9.67;;;;;10.77;58.52;101657.69;5107093;27;45921;-76
2022/02/03 07:27:21;;;;;;;;;12.00;9.00;;;;;10.63;58.87;101665.25;5085219;27;47461;-77
2022/02/03 07:29:46;;;;;;;;;12.00;8.00;;;;;10.57;58.82;101673.03;5087811;27;45402;-76
2022/02/03 07:32:12;;;;;;;;;9.67;9.67;;;;;10.44;59.52;101663.94;5091952;27;45383;-76
2022/02/03 07:34:39;;;;;;;;;13.67;9.00;;;;;10.44;59.33;101654.25;5091286;27;45670;-76
2022/02/03 07:37:04;;;;;;;;;9.00;9.00;;;;;10.38;59.31;101645.28;5075484;27;47524;-76
2022/02/03 07:39:30;;;;;;;;;12.33;9.00;;;;;10.37;59.27;101660.22;5078475;27;45395;-76
2022/02/03 07:41:55;;;;;;;;;10.00;8.00;;;;;10.41;59.44;101664.72;5081294;27;50573;-76
2022/02/03 07:44:21;;;;;;;;;14.25;11.00;;;;;10.39;59.62;101641.81;5078148;27;45634;-76
2022/02/03 07:46:46;;;;;;;;;15.67;13.33;;;;;10.39;59.63;101634.78;5087845;27;45851;-75
2022/02/03 07:49:12;;;;;;;;;9.00;5.33;;;;;10.51;59.62;101641.22;5089324;27;45525;-77
2022/02/03 07:51:37;;;;;;;;;13.00;10.00;;;;;10.58;60.13;101640.50;5079758;27;45961;-77
2022/02/03 07:54:04;;;;;;;;;13.00;11.25;;;;;10.58;59.59;101651.94;5085288;27;45673;-77
2022/02/03 07:56:31;;;;;;;;;15.67;12.67;;;;;10.52;59.37;101662.34;5085668;27;46726;-77
2022/02/03 07:58:56;;;;;;;;;19.00;11.33;;;;;10.44;59.35;101649.00;5068356;27;45280;-77
2022/02/03 08:01:21;;;;;;;;;14.00;12.00;;;;;10.42;59.61;101655.94;5086454;27;54688;-79
2022/02/03 08:03:47;;;;;;;;;13.33;12.00;;;;;10.36;59.87;101653.16;5088057;27;45655;-77
2022/02/03 08:06:22;;;;;;;;;11.75;10.75;;;;;10.38;59.72;101653.19;5085175;27;47250;-78
2022/02/03 08:08:55;;;;;;;;;13.00;11.75;;;;;10.39;59.81;101649.72;5072078;27;45587;-80
2022/02/03 08:11:27;;;;;;;;;13.33;13.33;;;;;10.37;59.74;101648.78;5084926;27;45387;-82
2022/02/03 08:13:58;;;;;;;;;13.75;13.75;;;;;10.34;60.07;101646.06;5090508;27;45632;-76
2022/02/03 08:16:32;;;;;;;;;15.00;12.75;;;;;10.22;60.32;101650.13;5079343;27;46775;-76
2022/02/03 08:19:14;;;;;;;;;15.25;13.75;;;;;10.16;60.25;101660.53;5093795;27;45433;-76
2022/02/03 08:21:44;;;;;;;;;13.50;12.25;;;;;10.16;60.30;101657.00;5084069;27;45315;-76
2022/02/03 08:24:23;;;;;;;;;19.00;14.25;;;;;10.22;60.18;101655.41;5079221;27;45520;-76
2022/02/03 08:31:51;;;;;;;;;12.00;10.00;;;;;10.44;60.08;101638.44;5088722;27;45343;-75
2022/02/03 08:34:22;;;;;;;;;15.25;14.25;;;;;10.51;60.08;101635.94;5091390;27;45541;-75
2022/02/03 08:36:48;;;;;;;;;13.25;13.25;;;;;10.53;59.77;101623.63;5090226;27;45667;-76
2022/02/03 08:39:18;;;;;;;;;15.25;13.50;;;;;10.64;59.60;101640.63;5092609;27;45443;-75
2022/02/03 08:41:44;;;;;;;;;14.00;13.00;;;;;10.70;59.74;101625.81;5092924;27;45423;-75
2022/02/03 08:44:09;;;;;;;;;13.75;12.25;;;;;10.79;59.24;101638.34;5087293;27;45242;-74
2022/02/03 08:46:35;;;;;;;;;10.75;9.75;;;;;10.78;60.21;101626.00;5076464;27;59641;-81
2022/02/03 08:49:03;;;;;;;;;15.00;11.75;;;;;10.80;58.72;101621.63;5077324;27;50004;-79
2022/02/03 08:51:30;;;;;;;;;12.00;10.00;;;;;10.80;58.60;101629.56;5096896;27;45519;-81
2022/02/03 08:54:03;;;;;;;;;14.00;10.00;;;;;10.77;59.04;101626.88;5054360;27;45537;-83
2022/02/03 10:00:30;;;;;;;;;17.00;15.50;;;;;11.11;59.11;101580.03;5092002;27;45444;-74
2022/02/03 10:02:57;;;;;;;;;15.25;15.00;;;;;11.01;59.00;101563.97;5090210;27;45543;-74
2022/02/03 10:05:37;;;;;;;;;20.50;17.50;;;;;10.94;58.76;101555.91;5097073;27;45460;-74
2022/02/03 10:08:02;;;;;;;;;14.00;12.75;;;;;10.92;58.93;101549.66;5096348;27;45187;-74
2022/02/03 10:10:29;;;;;;;;;14.25;11.75;;;;;11.12;59.19;101581.81;5097090;27;46680;-74
2022/02/03 10:12:54;;;;;;;;;15.25;10.50;;;;;11.11;58.94;101583.56;5099167;27;45393;-74
2022/02/03 10:15:20;;;;;;;;;20.00;18.25;;;;;11.07;59.06;101572.88;5080568;27;45657;-73
2022/02/03 10:17:48;;;;;;;;;16.25;14.50;;;;;11.18;59.16;101584.56;5086669;27;45647;-75
2022/02/03 10:20:15;;;;;;;;;20.00;17.50;;;;;11.18;59.16;101601.31;5079736;27;45813;-74
2022/02/03 10:23:03;;;;;;;;;18.25;15.00;;;;;11.22;59.22;101594.34;5085996;27;45298;-74
2022/02/03 10:25:38;;;;;;;;;17.25;14.50;;;;;11.24;58.77;101598.84;5070927;27;45620;-74
2022/02/03 10:28:07;;;;;;;;;16.25;14.25;;;;;11.20;58.61;101589.06;5082806;27;45506;-75
2022/02/03 10:30:38;;;;;;;;;18.25;15.75;;;;;11.21;58.37;101587.28;5095736;27;46540;-73
2022/02/03 10:33:04;;;;;;;;;14.50;12.75;;;;;11.25;58.92;101591.78;5095550;27;45459;-75
2022/02/03 10:35:46;;;;;;;;;18.00;17.00;;;;;11.25;58.77;101615.59;5098156;27;45493;-76
2022/02/03 10:57:30;;;;;;;;;63.25;47.50;;;;;11.07;59.21;101600.22;5108507;27;45432;-74
2022/02/03 11:12:47;;;;;;;;;19.00;15.75;;;;;11.17;58.57;101545.78;5092227;27;45555;-75
2022/02/03 11:15:13;;;;;;;;;11.75;11.75;;;;;11.16;58.65;101542.25;5074471;27;45568;-75
2022/02/03 11:17:38;;;;;;;;;21.00;18.75;;;;;11.07;58.50;101543.81;5091770;27;45744;-76
2022/02/03 11:20:06;;;;;;;;;16.25;12.75;;;;;11.06;58.79;101535.00;5068866;27;45589;-73
2022/02/03 11:22:44;;;;;;;;;22.25;21.75;;;;;11.04;58.82;101530.56;5094557;27;46450;-76
2022/02/03 11:25:21;;;;;;;;;19.75;18.00;;;;;11.18;58.93;101544.94;5086332;27;45308;-77
2022/02/03 11:52:58;;;;;;;;;16.75;15.00;;;;;11.18;58.58;101527.31;5078716;27;47409;-74
2022/02/03 11:56:08;;;;;;;;;16.50;15.25;;;;;10.92;58.87;101489.81;5072814;27;46535;-74
2022/02/03 12:18:42;;;;;;;;;23.50;17.00;;;;;11.10;59.19;101481.34;5090757;27;46339;-75
2022/02/03 12:20:33;;;;;;;;;17.50;14.50;;;;;11.11;59.15;101493.69;5072480;27;45306;-74
2022/02/03 12:23:10;;;;;;;;;17.00;17.00;;;;;11.11;59.01;101492.81;5094031;27;45575;-73
2022/02/03 12:25:56;;;;;;;;;20.75;14.75;;;;;10.98;59.30;101476.72;5094979;27;45465;-74
2022/02/03 12:28:31;;;;;;;;;17.50;15.50;;;;;10.99;59.72;101462.66;5085845;27;46629;-74
2022/02/03 12:39:05;;;;;;;;;16.25;15.25;;;;;11.12;59.81;101473.44;5090660;27;45262;-74
2022/02/03 12:41:37;;;;;;;;;22.50;16.50;;;;;11.21;59.73;101473.63;5086283;27;45537;-74
2022/02/03 12:44:13;;;;;;;;;20.00;18.50;;;;;11.22;59.71;101467.47;5092185;27;45450;-75
2022/02/03 12:46:39;;;;;;;;;19.50;14.00;;;;;11.12;59.67;101458.47;5074885;27;45587;-74
2022/02/03 12:49:04;;;;;;;;;20.25;18.50;;;;;11.21;59.64;101465.69;5090955;27;61454;-74
2022/02/03 12:51:29;;;;;;;;;26.75;21.75;;;;;11.22;59.91;101456.91;5090836;27;45658;-74
2022/02/03 12:53:55;;;;;;;;;19.50;16.50;;;;;11.16;59.86;101446.22;5096280;27;45617;-74
2022/02/03 12:56:23;;;;;;;;;24.75;17.50;;;;;11.05;60.08;101438.09;5097446;27;45449;-73
2022/02/03 12:59:01;;;;;;;;;24.25;19.25;;;;;11.08;60.00;101448.72;5088992;27;45854;-74
2022/02/03 13:01:35;;;;;;;;;19.50;14.75;;;;;10.98;59.95;101438.84;5076847;27;45288;-74
2022/02/03 13:04:04;;;;;;;;;24.75;19.75;;;;;11.05;60.20;101455.69;5089509;27;45472;-74
2022/02/03 13:06:31;;;;;;;;;24.75;17.25;;;;;11.09;60.48;101457.56;5090662;27;45311;-74
2022/02/03 13:08:59;;;;;;;;;24.50;19.25;;;;;10.98;60.57;101445.03;5098235;27;47732;-74
2022/02/03 13:16:28;;;;;;;;;25.00;20.50;;;;;10.92;60.80;101444.00;5087495;27;45901;-75
2022/02/03 13:19:29;;;;;;;;;26.75;20.75;;;;;10.92;60.72;101446.63;5072632;27;48584;-74
2022/02/03 13:26:54;;;;;;;;;25.25;19.50;;;;;10.90;61.00;101443.97;5096251;27;45537;-74
2022/02/03 13:29:32;;;;;;;;;30.25;23.25;;;;;10.87;61.28;101421.91;5094840;27;46518;-74
2022/02/03 13:32:20;;;;;;;;;29.75;21.75;;;;;10.92;61.57;101422.84;5094858;27;45419;-74
2022/02/03 13:37:34;;;;;;;;;29.75;25.00;;;;;11.00;61.21;101429.19;5068954;27;45242;-74
2022/02/03 13:40:15;;;;;;;;;32.50;24.75;;;;;10.93;61.42;101422.91;5098060;27;46921;-74
2022/02/03 13:42:46;;;;;;;;;28.00;21.50;;;;;10.91;61.27;101421.97;5093862;27;45279;-74
2022/02/03 13:45:15;;;;;;;;;28.75;17.00;;;;;10.96;61.08;101435.25;5087120;27;45551;-73
2022/02/03 13:47:40;;;;;;;;;23.25;20.25;;;;;10.97;61.27;101443.25;5093583;27;45444;-75
2022/02/03 13:50:31;;;;;;;;;26.75;21.25;;;;;10.98;61.26;101447.66;5090935;27;46113;-74
2022/02/03 13:53:04;;;;;;;;;27.50;22.00;;;;;10.97;61.64;101435.31;5091723;27;45342;-75
2022/02/03 14:22:11;;;;;;;;;22.00;16.75;;;;;11.32;61.11;101378.66;5077721;27;45872;-75
2022/02/03 14:29:49;;;;;;;;;21.75;17.50;;;;;11.73;60.79;101351.09;5088157;27;45710;-74
2022/02/03 14:32:18;;;;;;;;;27.25;22.25;;;;;12.04;60.36;101378.94;5089077;27;47829;-76
2022/02/03 14:34:43;;;;;;;;;19.00;17.00;;;;;12.12;59.98;101354.31;5074124;27;45757;-74
2022/02/03 14:37:24;;;;;;;;;22.75;16.75;;;;;12.25;59.34;101366.81;5097776;27;45295;-75
2022/02/03 14:42:15;;;;;;;;;28.50;20.75;;;;;12.34;59.38;101361.63;5083845;27;45576;-76
2022/02/03 14:44:40;;;;;;;;;20.50;17.50;;;;;12.41;59.31;101376.75;5093923;27;45713;-76
2022/02/03 14:47:07;;;;;;;;;31.00;29.75;;;;;12.44;58.91;101362.66;5083184;27;45334;-75
2022/02/03 14:49:33;;;;;;;;;26.75;19.75;;;;;12.42;58.92;101354.69;5085941;27;45737;-74
2022/02/03 14:52:13;;;;;;;;;22.75;15.75;;;;;12.39;59.23;101357.28;5092834;27;46560;-74
2022/02/03 15:00:08;;;;;;;;;28.00;19.75;;;;;12.34;59.38;101364.28;5092769;27;45471;-73
2022/02/03 15:02:33;;;;;;;;;23.25;19.50;;;;;12.36;58.87;101366.94;5074750;27;46022;-75
2022/02/03 15:05:06;;;;;;;;;17.25;16.50;;;;;12.30;59.09;101375.69;5094812;27;54156;-74
2022/02/03 15:07:34;;;;;;;;;19.00;16.25;;;;;12.27;59.19;101370.38;5086787;27;46092;-73
2022/02/03 15:10:17;;;;;;;;;25.25;22.50;;;;;12.33;59.42;101367.81;5086845;27;45823;-74
2022/02/03 15:12:57;;;;;;;;;17.50;16.50;;;;;12.37;59.24;101367.00;5086666;27;46472;-74
2022/02/03 15:15:22;;;;;;;;;23.75;19.75;;;;;12.39;59.04;101370.53;5092605;27;45687;-74
2022/02/03 15:17:48;;;;;;;;;31.75;25.50;;;;;12.37;59.06;101360.81;5091769;27;52611;-76
2022/02/03 15:20:13;;;;;;;;;28.75;24.25;;;;;12.37;59.19;101359.03;5092304;27;52757;-75
2022/02/03 15:22:38;;;;;;;;;24.25;19.00;;;;;12.36;59.09;101356.34;5096511;27;46111;-74
2022/02/03 15:25:04;;;;;;;;;21.33;16.67;;;;;12.37;59.25;101358.16;5095736;27;56318;-74
2022/02/03 15:27:30;;;;;;;;;18.25;17.75;;;;;12.33;59.11;101359.88;5103985;27;45511;-74
2022/02/03 15:29:59;;;;;;;;;17.67;15.00;;;;;12.35;59.05;101362.53;5093927;27;45449;-74
2022/02/03 15:32:25;;;;;;;;;14.00;13.00;;;;;12.29;59.14;101368.63;5093692;27;46150;-74
2022/02/03 15:34:53;;;;;;;;;22.25;19.00;;;;;12.23;59.13;101364.16;5093675;27;45638;-74
2022/02/03 15:37:20;;;;;;;;;17.67;16.33;;;;;12.19;59.16;101364.09;5093672;27;45385;-74
2022/02/03 15:39:50;;;;;;;;;20.00;18.00;;;;;12.16;59.17;101358.78;5087630;27;45474;-74
2022/02/03 15:42:19;;;;;;;;;21.50;18.00;;;;;12.12;59.52;101363.13;5091306;27;46654;-74
2022/02/03 15:44:49;;;;;;;;;14.50;14.50;;;;;11.99;59.49;101345.31;5090101;27;45516;-75
2022/02/03 15:47:26;;;;;;;;;22.33;16.33;;;;;12.01;59.41;101365.63;5096413;27;45503;-76
2022/02/03 16:03:35;;;;;;;;;17.00;15.33;;;;;11.76;60.59;101366.13;5091247;27;45936;-74
2022/02/03 16:17:15;;;;;;;;;16.00;13.67;;;;;11.73;60.63;101344.91;5088673;27;45514;-75
2022/02/03 16:19:08;;;;;;;;;22.00;16.00;;;;;11.70;60.84;101350.16;5082084;27;45511;-74
2022/02/03 16:21:43;;;;;;;;;15.75;15.75;;;;;11.67;60.77;101352.78;5091830;27;45518;-76
2022/02/03 16:25:01;;;;;;;;;12.67;12.67;;;;;11.73;60.81;101366.09;5095873;27;45404;-75
2022/02/03 16:41:06;;;;;;;;;22.00;15.33;;;;;11.73;60.96;101364.31;5094451;27;45467;-75
2022/02/03 16:54:07;;;;;;;;;18.00;15.00;;;;;11.67;61.21;101369.53;5089204;27;47035;-77
2022/02/03 16:56:32;;;;;;;;;15.67;11.67;;;;;11.64;61.62;101372.13;5084878;27;45928;-75
2022/02/03 16:58:58;;;;;;;;;15.50;14.25;;;;;11.65;61.32;101365.06;5086950;27;45456;-75
2022/02/03 17:01:26;;;;;;;;;25.25;15.25;;;;;11.66;61.41;101373.00;5086557;27;46813;-75
2022/02/03 17:03:52;;;;;;;;;17.00;15.75;;;;;11.64;61.62;101358.00;5091057;27;46209;-75
2022/02/03 17:06:17;;;;;;;;;15.33;11.00;;;;;11.63;61.46;101374.75;5088045;27;45540;-74
2022/02/03 17:08:42;;;;;;;;;17.33;15.00;;;;;11.61;61.61;101372.09;5090507;27;50769;-75
2022/02/03 17:11:08;;;;;;;;;15.50;11.00;;;;;11.60;61.64;101369.41;5091401;27;53400;-74
2022/02/03 17:13:33;;;;;;;;;18.00;13.00;;;;;11.57;61.69;101364.97;5086683;27;45532;-74
2022/02/03 17:15:59;;;;;;;;;17.33;15.33;;;;;11.47;61.91;101350.69;5093518;27;46499;-75
2022/02/03 17:18:24;;;;;;;;;13.33;13.00;;;;;11.58;61.82;101372.03;5093608;27;45355;-75
2022/02/03 17:20:49;;;;;;;;;17.25;17.00;;;;;11.59;61.91;101368.50;5088089;27;50723;-75
2022/02/03 17:23:19;;;;;;;;;19.00;17.00;;;;;11.61;61.83;101379.09;5090853;27;46629;-75
2022/02/03 17:25:54;;;;;;;;;17.33;15.67;;;;;11.52;61.90;101364.00;5086563;27;45653;-75
2022/02/03 17:31:34;;;;;;;;;14.33;12.00;;;;;11.61;61.87;101376.47;5109314;27;45523;-75
2022/02/03 18:09:20;;;;;;;;;18.00;10.00;;;;;11.61;61.92;101382.66;5095796;27;45699;-74
2022/02/03 18:17:11;;;;;;;;;16.33;13.33;;;;;11.65;62.51;101397.69;5086385;27;45516;-75
2022/02/03 18:17:32;;;;;;;;;15.00;13.33;;;;;11.60;62.69;101378.22;5084622;27;45525;-75
2022/02/03 18:25:50;;;;;;;;;14.33;14.00;;;;;11.66;62.36;101385.34;5088536;27;46127;-75
2022/02/03 18:31:18;;;;;;;;;19.25;15.50;;;;;11.67;62.92;101381.88;5080146;27;45832;-77
2022/02/03 18:56:09;;;;;;;;;27.00;20.25;;;;;11.65;63.22;101378.28;5108936;27;45501;-75
2022/02/03 18:58:30;;;;;;;;;26.25;23.75;;;;;11.64;63.32;101388.00;5077378;27;45353;-76
2022/02/03 20:12:05;;;;;;;;;20.00;18.25;;;;;11.20;65.79;101417.22;5094117;27;45465;-74
2022/02/03 20:14:30;;;;;;;;;23.25;23.25;;;;;11.11;65.54;101402.97;5092058;27;45595;-74
2022/02/03 20:16:56;;;;;;;;;32.50;26.75;;;;;11.14;65.75;101410.94;5097281;27;45273;-73
2022/02/03 20:19:21;;;;;;;;;33.25;28.25;;;;;11.15;65.90;101410.97;5096363;27;46552;-74
2022/02/03 20:21:47;;;;;;;;;26.50;23.75;;;;;11.16;66.28;101410.09;5083391;27;47957;-73
2022/02/03 20:24:13;;;;;;;;;19.50;19.00;;;;;11.18;66.04;101415.41;5073434;27;45446;-74
2022/02/03 20:26:41;;;;;;;;;26.25;24.75;;;;;11.12;65.78;101397.69;5088740;27;45281;-73
2022/02/03 20:29:06;;;;;;;;;50.75;41.00;;;;;11.21;66.29;101423.41;5105652;27;46498;-74
2022/02/03 20:31:32;;;;;;;;;25.50;21.75;;;;;11.07;66.77;101398.47;5112587;27;45540;-74
2022/02/03 20:33:57;;;;;;;;;23.50;19.00;;;;;11.20;66.34;101419.88;5093414;27;45475;-74
2022/02/03 20:36:23;;;;;;;;;20.00;17.50;;;;;11.16;66.53;101415.38;5093322;27;45468;-74
2022/02/03 20:38:51;;;;;;;;;22.25;17.00;;;;;11.14;66.11;101411.84;5081729;27;46546;-74
2022/02/03 20:41:17;;;;;;;;;19.25;17.00;;;;;11.18;66.56;101410.13;5093353;27;45373;-73
2022/02/03 20:43:42;;;;;;;;;19.75;15.75;;;;;11.09;66.40;101394.13;5093551;27;45345;-73
2022/02/03 20:46:07;;;;;;;;;15.00;14.00;;;;;10.86;66.53;101359.34;5078604;27;45293;-74
2022/02/03 20:48:33;;;;;;;;;20.00;16.50;;;;;11.14;66.27;101416.25;5076678;27;46326;-74
2022/02/03 20:50:58;;;;;;;;;19.75;16.25;;;;;11.13;66.53;101417.06;5076875;27;45476;-74
2022/02/03 20:53:24;;;;;;;;;18.50;14.00;;;;;11.04;66.69;101401.06;5075867;27;45489;-74
2022/02/03 20:55:49;;;;;;;;;18.00;14.75;;;;;11.14;66.41;101422.41;5086696;27;45559;-73
2022/02/03 20:58:17;;;;;;;;;21.25;15.00;;;;;11.11;66.45;101405.59;5084428;27;46661;-74
2022/02/03 21:00:50;;;;;;;;;16.00;14.75;;;;;11.17;66.44;101421.56;5088888;27;45382;-74
2022/02/03 21:05:48;;;;;;;;;15.50;15.50;;;;;11.13;66.35;101420.63;5082063;27;45351;-74
2022/02/03 21:08:16;;;;;;;;;16.00;13.75;;;;;11.14;66.61;101411.84;5078515;27;46559;-74
2022/02/03 21:10:42;;;;;;;;;16.00;14.75;;;;;11.07;66.74;101401.13;5092507;27;45500;-74
2022/02/03 21:13:07;;;;;;;;;21.25;15.00;;;;;11.15;66.61;101420.66;5091261;27;45571;-74
2022/02/03 21:15:36;;;;;;;;;15.50;11.25;;;;;11.13;66.52;101425.00;5094378;27;45600;-74
2022/02/03 21:18:06;;;;;;;;;16.00;14.00;;;;;11.07;66.29;101403.75;5086838;27;46070;-74
2022/02/03 21:20:33;;;;;;;;;11.75;10.75;;;;;11.06;66.49;101401.97;5090982;27;45468;-74
2022/02/03 21:22:58;;;;;;;;;19.75;12.00;;;;;11.16;66.67;101417.16;5093554;27;45468;-74
2022/02/03 21:27:53;;;;;;;;;16.00;11.33;;;;;11.18;66.28;101418.06;5070801;27;46395;-74
2022/02/03 21:30:20;;;;;;;;;16.25;11.25;;;;;11.19;66.62;101423.38;5094835;27;45411;-74
2022/02/03 21:32:46;;;;;;;;;15.33;11.33;;;;;11.19;66.29;101423.38;5095511;27;45653;-73
2022/02/03 21:35:11;;;;;;;;;13.33;11.33;;;;;11.18;66.38;101420.69;5096084;27;45695;-73
2022/02/03 21:37:38;;;;;;;;;15.00;11.67;;;;;11.16;66.72;101425.06;5094325;27;47955;-74
2022/02/03 21:40:05;;;;;;;;;15.00;12.67;;;;;11.16;66.30;101431.25;5071130;27;45802;-74
2022/02/03 21:42:30;;;;;;;;;14.33;12.33;;;;;11.15;66.53;101432.13;5092644;27;45697;-74
2022/02/03 21:44:56;;;;;;;;;14.00;11.33;;;;;11.17;66.35;101424.22;5079073;27;45690;-74
2022/02/03 21:47:21;;;;;;;;;14.33;10.67;;;;;11.19;66.43;101435.72;5077121;27;45943;-74
2022/02/03 21:49:47;;;;;;;;;14.67;12.33;;;;;11.24;66.53;101428.75;5222465;22;46032;-74
2022/02/03 21:52:19;;;;;;;;;11.67;10.00;;;;;11.27;66.57;101431.44;5089222;27;45989;-74
2022/02/03 21:54:45;;;;;;;;;13.67;9.67;;;;;11.26;66.48;101422.63;5088638;27;45395;-73
2022/02/03 21:57:11;;;;;;;;;12.33;10.00;;;;;11.27;66.21;101431.44;5095320;27;46439;-73
2022/02/03 21:59:36;;;;;;;;;11.67;10.33;;;;;11.22;66.35;101425.19;5080353;27;45275;-73
2022/02/03 22:02:05;;;;;;;;;11.00;9.67;;;;;11.23;66.13;101426.94;5095177;27;45148;-74
2022/02/03 22:04:31;;;;;;;;;11.33;11.33;;;;;11.22;66.44;101423.44;5092944;27;45488;-74
2022/02/03 22:06:56;;;;;;;;;16.67;11.67;;;;;11.26;66.61;101441.13;5084201;27;46435;-73
2022/02/03 22:09:21;;;;;;;;;11.00;9.67;;;;;11.27;66.61;101440.25;5096238;27;45382;-73
2022/02/03 22:11:47;;;;;;;;;13.00;12.00;;;;;11.28;66.42;101438.50;5093118;27;45761;-73